Aviation Digital Data Service (ADDS)

Output produced by TAFs form (2354 UTC 24 February 2018)
found at http://aviationweather.gov/adds/tafs/
 
KMAF 242320Z 2500/2524 27008KT P6SM SKC